createdAt,value
2023-04-26T00:00:11.869Z,100376.41
2023-04-26T00:02:38.600Z,100375.59
2023-04-26T00:05:06.497Z,100376.56
2023-04-26T00:07:33.983Z,100379.50
2023-04-26T00:10:00.537Z,100373.28
2023-04-26T00:12:27.807Z,100390.94
2023-04-26T00:14:54.388Z,100383.91
2023-04-26T00:17:21.103Z,100383.03
2023-04-26T00:19:47.645Z,100385.53
2023-04-26T00:22:15.325Z,100385.09
2023-04-26T00:24:41.946Z,100385.47
2023-04-26T00:27:10.387Z,100378.41
2023-04-26T00:29:37.593Z,100383.94
2023-04-26T00:32:04.310Z,100387.84
2023-04-26T00:34:37.432Z,100388.56
2023-04-26T00:37:05.298Z,100386.06
2023-04-26T00:39:31.910Z,100390.16
2023-04-26T00:41:58.500Z,100389.91
2023-04-26T00:44:25.078Z,100389.28
2023-04-26T00:46:53.808Z,100399.78
2023-04-26T00:49:23.059Z,100391.31
2023-04-26T00:51:51.820Z,100395.41
2023-04-26T00:54:21.151Z,100397.69
2023-04-26T00:56:48.304Z,100396.25
2023-04-26T00:59:14.850Z,100399.03
2023-04-26T01:01:42.665Z,100402.94
2023-04-26T01:04:09.437Z,100404.72
2023-04-26T01:06:38.498Z,100392.63
2023-04-26T01:09:11.032Z,100398.09
2023-04-26T01:11:38.442Z,100393.28
2023-04-26T01:14:05.642Z,100406.75
2023-04-26T01:16:33.125Z,100399.50
2023-04-26T01:19:13.683Z,100394.97
2023-04-26T01:21:41.107Z,100397.53
2023-04-26T01:24:09.958Z,100388.19
2023-04-26T01:26:37.298Z,100395.94
2023-04-26T01:29:14.168Z,100403.25
2023-04-26T01:31:40.678Z,100391.47
2023-04-26T01:34:07.194Z,100388.25
2023-04-26T01:36:33.774Z,100393.41
2023-04-26T01:39:00.468Z,100402.31
2023-04-26T01:41:27.075Z,100398.47
2023-04-26T01:43:53.672Z,100402.81
2023-04-26T01:46:20.167Z,100409.16
2023-04-26T01:48:47.329Z,100415.44
2023-04-26T01:51:14.145Z,100401.28
2023-04-26T01:53:40.589Z,100408.59
2023-04-26T01:56:07.335Z,100409.06
2023-04-26T01:58:33.849Z,100404.25
2023-04-26T02:01:07.985Z,100411.53
2023-04-26T02:03:35.777Z,100412.06
2023-04-26T02:06:03.165Z,100410.16
2023-04-26T02:08:30.001Z,100412.44
2023-04-26T02:10:56.898Z,100411.00
2023-04-26T02:13:23.470Z,100415.06
2023-04-26T02:15:51.404Z,100415.41
2023-04-26T02:18:21.827Z,100417.53
2023-04-26T02:20:48.623Z,100414.94
2023-04-26T02:23:15.653Z,100405.91
2023-04-26T02:25:42.498Z,100417.22
2023-04-26T02:28:09.032Z,100416.75
2023-04-26T02:30:35.643Z,100408.84
2023-04-26T02:33:02.578Z,100414.81
2023-04-26T02:35:29.131Z,100417.72
2023-04-26T02:37:55.911Z,100409.69
2023-04-26T02:40:22.556Z,100415.31
2023-04-26T02:42:49.327Z,100412.59
2023-04-26T02:45:15.963Z,100416.34
2023-04-26T02:47:42.594Z,100418.91
2023-04-26T02:50:10.376Z,100418.44
2023-04-26T02:52:37.161Z,100420.72
2023-04-26T02:55:04.631Z,100424.75
2023-04-26T02:57:31.967Z,100422.53
2023-04-26T02:59:58.931Z,100421.22
2023-04-26T03:02:25.723Z,100421.88
2023-04-26T03:04:52.637Z,100430.13
2023-04-26T03:07:19.391Z,100433.03
2023-04-26T03:09:46.022Z,100425.00
2023-04-26T03:12:12.544Z,100429.50
2023-04-26T03:14:39.339Z,100424.84
2023-04-26T03:17:06.250Z,100428.38
2023-04-26T03:19:32.873Z,100419.84
2023-04-26T03:21:59.350Z,100435.16
2023-04-26T03:24:26.197Z,100438.06
2023-04-26T03:26:53.914Z,100435.31
2023-04-26T03:29:20.627Z,100442.09
2023-04-26T03:31:47.180Z,100441.94
2023-04-26T03:34:13.712Z,100437.75
2023-04-26T03:36:40.280Z,100441.31
2023-04-26T03:39:06.836Z,100450.47
2023-04-26T03:41:33.792Z,100449.97
2023-04-26T03:44:00.414Z,100451.78
2023-04-26T03:46:27.016Z,100459.34
2023-04-26T03:48:53.724Z,100451.94
2023-04-26T03:51:20.983Z,100459.34
2023-04-26T03:53:48.713Z,100465.28
2023-04-26T03:56:15.460Z,100456.44
2023-04-26T03:58:43.210Z,100464.81
2023-04-26T04:01:09.818Z,100457.56
2023-04-26T04:03:37.898Z,100461.88
2023-04-26T04:06:06.742Z,100459.63
2023-04-26T04:08:33.922Z,100465.25
2023-04-26T04:11:01.549Z,100472.19
2023-04-26T04:13:28.136Z,100469.25
2023-04-26T04:15:54.743Z,100474.91
2023-04-26T04:18:21.300Z,100482.44
2023-04-26T04:20:47.806Z,100484.19
2023-04-26T04:23:14.292Z,100480.75
2023-04-26T04:25:41.113Z,100486.22
2023-04-26T04:28:08.567Z,100476.84
2023-04-26T04:30:35.587Z,100488.59
2023-04-26T04:33:02.809Z,100488.88
2023-04-26T04:35:33.496Z,100489.19
2023-04-26T04:38:00.229Z,100494.31
2023-04-26T04:40:27.535Z,100487.00
2023-04-26T04:42:54.887Z,100493.38
2023-04-26T04:45:21.664Z,100485.22
2023-04-26T04:47:48.468Z,100499.06
2023-04-26T04:50:15.108Z,100502.69
2023-04-26T04:52:42.524Z,100497.91
2023-04-26T04:55:09.899Z,100508.84
2023-04-26T04:57:36.499Z,100512.09
2023-04-26T05:00:10.304Z,100515.00
2023-04-26T05:02:37.515Z,100515.56
2023-04-26T05:05:05.265Z,100518.00
2023-04-26T05:07:32.657Z,100513.06
2023-04-26T05:09:59.892Z,100521.84
2023-04-26T05:12:27.046Z,100508.81
2023-04-26T05:14:53.510Z,100510.44
2023-04-26T05:17:20.386Z,100506.88
2023-04-26T05:19:47.289Z,100512.69
2023-04-26T05:22:18.601Z,100517.56
2023-04-26T05:24:47.428Z,100518.72
2023-04-26T05:27:14.616Z,100510.44
2023-04-26T05:29:41.760Z,100513.91
2023-04-26T05:32:08.598Z,100515.97
2023-04-26T05:34:36.692Z,100527.19
2023-04-26T05:37:03.557Z,100520.03
2023-04-26T05:39:30.713Z,100520.66
2023-04-26T05:41:57.436Z,100525.84
2023-04-26T05:44:23.901Z,100519.84
2023-04-26T05:46:50.625Z,100522.84
2023-04-26T05:49:17.154Z,100532.66
2023-04-26T05:51:43.621Z,100531.03
2023-04-26T05:54:10.179Z,100526.66
2023-04-26T05:56:36.765Z,100534.16
2023-04-26T05:59:03.257Z,100533.22
2023-04-26T06:01:29.739Z,100537.25
2023-04-26T06:03:59.841Z,100534.75
2023-04-26T06:06:27.628Z,100535.66
2023-04-26T06:08:55.575Z,100530.91
2023-04-26T06:11:24.521Z,100529.25
2023-04-26T06:13:51.561Z,100531.13
2023-04-26T06:16:18.817Z,100539.34
2023-04-26T06:18:45.425Z,100539.28
2023-04-26T06:21:11.909Z,100537.34
2023-04-26T06:23:38.407Z,100538.31
2023-04-26T06:26:04.942Z,100549.63
2023-04-26T06:28:31.672Z,100541.94
2023-04-26T06:30:58.273Z,100541.22
2023-04-26T06:33:24.854Z,100543.00
2023-04-26T06:35:52.417Z,100548.63
2023-04-26T06:38:19.042Z,100534.78
2023-04-26T06:40:45.589Z,100542.19
2023-04-26T06:43:12.130Z,100542.97
2023-04-26T06:45:39.669Z,100545.97
2023-04-26T06:48:07.224Z,100540.09
2023-04-26T06:50:33.876Z,100552.09
2023-04-26T06:53:00.439Z,100542.81
2023-04-26T06:55:26.970Z,100532.41
2023-04-26T06:57:53.541Z,100543.59
2023-04-26T07:00:20.423Z,100548.19
2023-04-26T07:02:47.045Z,100549.81
2023-04-26T07:05:15.339Z,100550.50
2023-04-26T07:07:42.030Z,100551.88
2023-04-26T07:10:09.506Z,100548.31
2023-04-26T07:12:36.035Z,100547.13
2023-04-26T07:15:03.402Z,100545.72
2023-04-26T07:17:29.935Z,100550.94
2023-04-26T07:19:56.502Z,100552.38
2023-04-26T07:22:23.578Z,100550.13
2023-04-26T07:24:50.283Z,100567.56
2023-04-26T07:27:17.040Z,100547.28
2023-04-26T07:29:43.578Z,100559.31
2023-04-26T07:32:10.164Z,100555.91
2023-04-26T07:34:36.981Z,100555.13
2023-04-26T07:37:03.568Z,100569.34
2023-04-26T07:39:30.261Z,100566.34
2023-04-26T07:41:56.769Z,100574.72
2023-04-26T07:44:23.247Z,100565.69
2023-04-26T07:46:49.817Z,100573.31
2023-04-26T07:49:16.341Z,100576.16
2023-04-26T07:51:44.556Z,100573.34
2023-04-26T07:54:11.252Z,100569.91
2023-04-26T07:56:37.785Z,100584.31
2023-04-26T07:59:05.006Z,100577.09
2023-04-26T08:01:31.641Z,100584.16
2023-04-26T08:03:58.425Z,100570.94
2023-04-26T08:06:25.633Z,100587.19
2023-04-26T08:08:53.693Z,100586.56
2023-04-26T08:11:20.635Z,100588.41
2023-04-26T08:13:47.510Z,100588.78
2023-04-26T08:16:14.357Z,100597.78
2023-04-26T08:18:40.831Z,100589.19
2023-04-26T08:21:07.895Z,100584.56
2023-04-26T08:23:38.066Z,100585.59
2023-04-26T08:26:04.830Z,100583.97
2023-04-26T08:28:31.518Z,100589.78
2023-04-26T08:30:58.293Z,100584.75
2023-04-26T08:33:25.670Z,100582.53
2023-04-26T08:35:52.501Z,100587.25
2023-04-26T08:38:19.347Z,100590.66
2023-04-26T08:40:46.870Z,100594.88
2023-04-26T08:43:16.544Z,100578.06
2023-04-26T08:45:46.637Z,100592.91
2023-04-26T08:48:16.084Z,100593.78
2023-04-26T08:50:45.568Z,100603.41
2023-04-26T08:53:19.231Z,100602.59
2023-04-26T08:55:49.657Z,100607.81
2023-04-26T08:58:18.375Z,100599.38
2023-04-26T09:00:46.272Z,100591.56
2023-04-26T09:03:13.081Z,100587.38
2023-04-26T09:05:44.152Z,100604.19
2023-04-26T09:08:16.260Z,100607.03
2023-04-26T09:10:42.965Z,100608.41
2023-04-26T09:13:09.766Z,100607.59
2023-04-26T09:15:36.765Z,100612.63
2023-04-26T09:18:23.526Z,100606.22
2023-04-26T09:21:09.204Z,100605.50
2023-04-26T09:23:35.856Z,100599.19
2023-04-26T09:26:21.773Z,100610.00
2023-04-26T09:28:48.702Z,100601.34
2023-04-26T09:31:49.473Z,100604.53
2023-04-26T09:34:17.146Z,100607.16
2023-04-26T09:36:52.106Z,100610.41
2023-04-26T09:39:48.368Z,100611.66
2023-04-26T09:42:19.078Z,100614.78
2023-04-26T09:44:46.349Z,100605.97
2023-04-26T09:47:12.920Z,100611.00
2023-04-26T09:49:48.787Z,100618.22
2023-04-26T09:52:16.802Z,100601.00
2023-04-26T09:54:54.060Z,100595.16
2023-04-26T09:57:23.889Z,100619.38
2023-04-26T09:59:54.751Z,100613.03
2023-04-26T10:02:25.379Z,100604.47
2023-04-26T10:04:54.296Z,100606.47
2023-04-26T10:07:23.538Z,100608.56
2023-04-26T10:09:50.650Z,100619.84
2023-04-26T10:12:19.474Z,100604.63
2023-04-26T10:14:46.998Z,100623.13
2023-04-26T10:17:14.442Z,100617.31
2023-04-26T10:19:46.641Z,100614.78
2023-04-26T10:22:28.946Z,100622.75
2023-04-26T10:24:58.605Z,100623.38
2023-04-26T10:27:43.733Z,100619.16
2023-04-26T10:30:12.554Z,100619.84
2023-04-26T10:32:57.693Z,100633.06
2023-04-26T10:35:26.334Z,100629.22
2023-04-26T10:38:02.085Z,100621.66
2023-04-26T10:40:32.229Z,100626.81
2023-04-26T10:43:11.838Z,100629.91
2023-04-26T10:45:39.787Z,100634.34
2023-04-26T10:48:18.834Z,100635.06
2023-04-26T10:51:12.856Z,100625.13
2023-04-26T10:53:46.437Z,100627.47
2023-04-26T10:56:30.371Z,100620.91
2023-04-26T11:01:52.592Z,100628.78
2023-04-26T11:04:19.425Z,100612.06
2023-04-26T11:06:57.920Z,100613.88
2023-04-26T11:09:39.361Z,100622.16
2023-04-26T11:12:08.161Z,100635.81
2023-04-26T11:14:35.474Z,100633.13
2023-04-26T11:17:06.436Z,100640.03
2023-04-26T11:19:33.257Z,100635.84
2023-04-26T11:22:00.914Z,100641.13
2023-04-26T11:24:31.413Z,100632.47
2023-04-26T11:26:58.234Z,100624.81
2023-04-26T11:29:25.798Z,100639.31
2023-04-26T11:31:57.294Z,100633.78
2023-04-26T11:34:38.908Z,100639.00
2023-04-26T11:37:06.754Z,100632.63
2023-04-26T11:39:34.132Z,100638.81
2023-04-26T11:42:11.461Z,100633.44
2023-04-26T11:44:39.863Z,100639.84
2023-04-26T11:47:09.951Z,100643.81
2023-04-26T11:49:37.743Z,100634.47
2023-04-26T11:52:05.241Z,100636.66
2023-04-26T11:54:34.335Z,100642.09
2023-04-26T11:57:02.876Z,100642.47
2023-04-26T11:59:30.886Z,100637.19
2023-04-26T12:01:57.716Z,100647.78
2023-04-26T12:04:30.312Z,100647.69
2023-04-26T12:06:57.940Z,100665.41
2023-04-26T12:09:27.943Z,100657.97
2023-04-26T12:12:02.173Z,100661.63
2023-04-26T12:14:36.584Z,100666.97
2023-04-26T12:17:04.598Z,100656.44
2023-04-26T12:19:35.209Z,100655.78
2023-04-26T12:22:01.765Z,100657.81
2023-04-26T12:24:33.125Z,100652.88
2023-04-26T12:27:04.262Z,100651.97
2023-04-26T12:29:32.075Z,100655.09
2023-04-26T12:31:59.790Z,100660.50
2023-04-26T12:34:26.409Z,100658.91
2023-04-26T12:36:53.088Z,100666.50
2023-04-26T12:39:19.610Z,100667.81
2023-04-26T12:41:49.327Z,100666.63
2023-04-26T12:44:16.246Z,100660.41
2023-04-26T12:46:43.047Z,100659.09
2023-04-26T12:49:09.657Z,100658.31
2023-04-26T12:51:36.273Z,100656.72
2023-04-26T12:54:03.028Z,100672.00
2023-04-26T12:56:30.007Z,100672.97
2023-04-26T12:58:56.765Z,100671.56
2023-04-26T13:01:23.489Z,100665.25
2023-04-26T13:03:50.276Z,100655.00
2023-04-26T13:06:17.026Z,100660.94
2023-04-26T13:08:43.555Z,100671.03
2023-04-26T13:11:10.152Z,100672.97
2023-04-26T13:13:43.546Z,100672.16
2023-04-26T13:16:11.945Z,100675.03
2023-04-26T13:18:39.279Z,100676.41
2023-04-26T13:21:06.065Z,100665.13
2023-04-26T13:23:32.557Z,100672.75
2023-04-26T13:25:59.087Z,100670.50
2023-04-26T13:28:25.713Z,100665.28
2023-04-26T13:30:52.546Z,100673.97
2023-04-26T13:33:21.459Z,100672.81
2023-04-26T13:35:48.497Z,100678.91
2023-04-26T13:38:16.501Z,100682.94
2023-04-26T13:40:44.041Z,100688.19
2023-04-26T13:43:10.908Z,100684.38
2023-04-26T13:45:37.452Z,100697.00
2023-04-26T13:48:04.204Z,100705.50
2023-04-26T13:50:31.069Z,100705.16
2023-04-26T13:52:57.594Z,100697.66
2023-04-26T13:55:24.345Z,100690.72
2023-04-26T13:57:51.019Z,100702.38
2023-04-26T14:00:18.042Z,100706.50
2023-04-26T14:02:44.738Z,100699.94
2023-04-26T14:05:11.684Z,100701.50
2023-04-26T14:07:38.410Z,100690.53
2023-04-26T14:10:05.220Z,100697.94
2023-04-26T14:12:31.785Z,100701.25
2023-04-26T14:14:58.459Z,100689.97
2023-04-26T14:17:25.807Z,100700.63
2023-04-26T14:19:54.522Z,100703.38
2023-04-26T14:22:21.378Z,100698.53
2023-04-26T14:24:48.082Z,100695.94
2023-04-26T14:27:15.012Z,100698.63
2023-04-26T14:29:41.588Z,100707.41
2023-04-26T14:32:08.189Z,100716.13
2023-04-26T14:34:39.152Z,100710.41
2023-04-26T14:37:06.834Z,100718.09
2023-04-26T14:39:33.797Z,100713.06
2023-04-26T14:42:00.679Z,100719.22
2023-04-26T14:44:27.794Z,100723.09
2023-04-26T14:46:54.305Z,100718.72
2023-04-26T14:49:21.129Z,100717.34
2023-04-26T14:51:47.745Z,100707.69
2023-04-26T14:54:15.338Z,100721.88
2023-04-26T14:56:42.218Z,100720.44
2023-04-26T14:59:08.766Z,100719.38
2023-04-26T15:01:35.557Z,100723.31
2023-04-26T15:04:02.405Z,100724.66
2023-04-26T15:06:30.764Z,100714.22
2023-04-26T15:08:57.470Z,100716.56
2023-04-26T15:11:24.178Z,100720.28
2023-04-26T15:13:51.155Z,100718.06
2023-04-26T15:16:17.858Z,100708.31
2023-04-26T15:18:46.456Z,100720.69
2023-04-26T15:21:19.682Z,100730.00
2023-04-26T15:23:49.122Z,100721.06
2023-04-26T15:26:15.683Z,100726.25
2023-04-26T15:28:42.546Z,100730.75
2023-04-26T15:31:10.046Z,100726.16
2023-04-26T15:33:36.819Z,100733.00
2023-04-26T15:36:03.582Z,100737.22
2023-04-26T15:38:30.198Z,100733.63
2023-04-26T15:40:56.769Z,100732.03
2023-04-26T15:43:23.401Z,100740.50
2023-04-26T15:45:50.223Z,100742.91
2023-04-26T15:48:16.980Z,100739.09
2023-04-26T15:50:43.539Z,100731.03
2023-04-26T15:53:10.171Z,100738.44
2023-04-26T15:55:36.875Z,100743.03
2023-04-26T15:58:03.538Z,100732.09
2023-04-26T16:00:31.544Z,100740.16
2023-04-26T16:02:58.262Z,100740.00
2023-04-26T16:05:25.003Z,100742.84
2023-04-26T16:07:51.618Z,100745.28
2023-04-26T16:10:18.067Z,100741.41
2023-04-26T16:12:44.968Z,100737.75
2023-04-26T16:15:11.938Z,100741.63
2023-04-26T16:17:39.377Z,100747.72
2023-04-26T16:20:07.194Z,100757.56
2023-04-26T16:22:35.012Z,100750.94
2023-04-26T16:25:04.108Z,100751.56
2023-04-26T16:27:30.651Z,100760.78
2023-04-26T16:29:57.598Z,100760.59
2023-04-26T16:32:27.500Z,100762.59
2023-04-26T16:34:54.039Z,100767.41
2023-04-26T16:37:20.866Z,100784.25
2023-04-26T16:39:47.469Z,100776.63
2023-04-26T16:42:14.084Z,100780.25
2023-04-26T16:44:40.871Z,100783.44
2023-04-26T16:47:07.458Z,100783.38
2023-04-26T16:49:34.306Z,100786.97
2023-04-26T16:52:01.194Z,100796.78
2023-04-26T16:54:28.428Z,100793.97
2023-04-26T16:56:54.965Z,100790.53
2023-04-26T16:59:21.481Z,100790.88
2023-04-26T17:01:48.107Z,100787.13
2023-04-26T17:04:14.873Z,100784.34
2023-04-26T17:06:41.638Z,100789.00
2023-04-26T17:09:08.763Z,100788.63
2023-04-26T17:11:37.363Z,100779.81
2023-04-26T17:14:04.541Z,100783.22
2023-04-26T17:16:31.424Z,100787.41
2023-04-26T17:18:58.531Z,100783.75
2023-04-26T17:21:25.527Z,100794.72
2023-04-26T17:23:52.567Z,100799.69
2023-04-26T17:26:19.304Z,100794.63
2023-04-26T17:28:46.490Z,100803.94
2023-04-26T17:31:13.085Z,100804.69
2023-04-26T17:33:39.772Z,100810.66
2023-04-26T17:36:06.513Z,100815.38
2023-04-26T17:38:33.050Z,100815.75
2023-04-26T17:40:59.786Z,100818.09
2023-04-26T17:43:26.434Z,100816.44
2023-04-26T17:45:53.206Z,100815.78
2023-04-26T17:48:20.436Z,100822.91
2023-04-26T17:50:47.149Z,100823.47
2023-04-26T17:53:14.069Z,100830.22
2023-04-26T17:55:40.734Z,100830.59
2023-04-26T17:58:09.050Z,100834.97
2023-04-26T18:00:35.661Z,100839.75
2023-04-26T18:03:05.152Z,100835.38
2023-04-26T18:05:31.996Z,100832.75
2023-04-26T18:07:58.801Z,100840.75
2023-04-26T18:10:25.826Z,100835.56
2023-04-26T18:12:52.344Z,100835.56
2023-04-26T18:15:19.376Z,100836.72
2023-04-26T18:17:46.236Z,100835.84
2023-04-26T18:20:13.344Z,100838.19
2023-04-26T18:22:40.173Z,100837.31
2023-04-26T18:25:07.221Z,100843.63
2023-04-26T18:27:33.921Z,100840.69
2023-04-26T18:30:00.750Z,100841.19
2023-04-26T18:32:27.308Z,100848.47
2023-04-26T18:34:53.913Z,100848.53
2023-04-26T18:37:20.454Z,100854.81
2023-04-26T18:39:47.056Z,100861.91
2023-04-26T18:42:13.589Z,100859.75
2023-04-26T18:44:40.089Z,100859.41
2023-04-26T18:47:08.229Z,100863.25
2023-04-26T18:49:34.729Z,100862.34
2023-04-26T18:52:01.692Z,100866.25
2023-04-26T18:54:28.356Z,100874.75
2023-04-26T18:56:54.912Z,100872.06
2023-04-26T18:59:21.666Z,100871.75
2023-04-26T19:01:49.599Z,100881.81
2023-04-26T19:04:16.433Z,100873.31
2023-04-26T19:06:43.220Z,100882.31
2023-04-26T19:09:11.769Z,100890.16
2023-04-26T19:11:38.497Z,100879.84
2023-04-26T19:14:05.233Z,100889.28
2023-04-26T19:16:32.122Z,100887.41
2023-04-26T19:18:58.905Z,100890.00
2023-04-26T19:21:25.489Z,100893.66
2023-04-26T19:23:52.388Z,100899.66
2023-04-26T19:26:19.002Z,100892.09
2023-04-26T19:28:45.538Z,100897.63
2023-04-26T19:31:12.148Z,100900.06
2023-04-26T19:33:40.577Z,100898.19
2023-04-26T19:36:08.652Z,100895.59
2023-04-26T19:38:35.348Z,100903.41
2023-04-26T19:41:02.449Z,100906.16
2023-04-26T19:43:29.172Z,100906.38
2023-04-26T19:45:55.872Z,100904.13
2023-04-26T19:48:22.361Z,100903.34
2023-04-26T19:50:48.931Z,100912.41
2023-04-26T19:53:15.655Z,100910.63
2023-04-26T19:55:42.683Z,100912.09
2023-04-26T19:58:10.874Z,100902.09
2023-04-26T20:00:39.138Z,100912.75
2023-04-26T20:03:06.695Z,100897.41
2023-04-26T20:05:33.897Z,100901.94
2023-04-26T20:08:01.763Z,100904.50
2023-04-26T20:10:32.762Z,100903.06
2023-04-26T20:13:00.841Z,100900.78
2023-04-26T20:15:28.033Z,100894.94
2023-04-26T20:17:55.109Z,100901.53
2023-04-26T20:20:21.977Z,100904.28
2023-04-26T20:22:48.661Z,100908.44
2023-04-26T20:25:15.483Z,100905.03
2023-04-26T20:27:42.073Z,100910.03
2023-04-26T20:30:09.314Z,100909.97
2023-04-26T20:32:36.033Z,100909.63
2023-04-26T20:35:02.794Z,100906.88
2023-04-26T20:37:29.538Z,100909.25
2023-04-26T20:39:56.651Z,100919.22
2023-04-26T20:42:24.418Z,100916.00
2023-04-26T20:44:51.444Z,100918.38
2023-04-26T20:47:18.307Z,100908.50
2023-04-26T20:49:44.994Z,100913.16
2023-04-26T20:52:11.620Z,100912.53
2023-04-26T20:54:38.129Z,100917.34
2023-04-26T20:57:04.683Z,100917.47
2023-04-26T20:59:31.441Z,100916.16
2023-04-26T21:01:58.179Z,100920.81
2023-04-26T21:04:25.178Z,100924.50
2023-04-26T21:06:51.924Z,100925.63
2023-04-26T21:09:19.169Z,100926.72
2023-04-26T21:11:45.979Z,100923.78
2023-04-26T21:14:13.750Z,100925.69
2023-04-26T21:16:40.636Z,100924.75
2023-04-26T21:19:08.247Z,100927.03
2023-04-26T21:21:35.149Z,100931.06
2023-04-26T21:24:02.624Z,100935.09
2023-04-26T21:26:29.719Z,100935.94
2023-04-26T21:28:56.276Z,100935.41
2023-04-26T21:31:22.877Z,100943.81
2023-04-26T21:33:49.669Z,100942.03
2023-04-26T21:36:16.398Z,100943.94
2023-04-26T21:38:43.052Z,100952.50
2023-04-26T21:41:09.990Z,100955.22
2023-04-26T21:43:36.553Z,100956.34
2023-04-26T21:46:03.438Z,100951.63
2023-04-26T21:48:30.030Z,100959.00
2023-04-26T21:50:57.008Z,100953.19
2023-04-26T21:53:23.585Z,100959.47
2023-04-26T21:55:52.569Z,100959.59
2023-04-26T21:58:20.712Z,100953.78
2023-04-26T22:00:48.148Z,100962.75
2023-04-26T22:03:14.894Z,100959.81
2023-04-26T22:05:41.926Z,100968.00
2023-04-26T22:08:08.568Z,100967.34
2023-04-26T22:10:35.594Z,100964.09
2023-04-26T22:13:02.642Z,100970.34
2023-04-26T22:15:29.309Z,100970.50
2023-04-26T22:17:55.894Z,100960.63
2023-04-26T22:20:22.694Z,100973.97
2023-04-26T22:22:49.282Z,100973.59
2023-04-26T22:25:15.888Z,100978.09
2023-04-26T22:27:42.394Z,100971.44
2023-04-26T22:30:16.805Z,100975.81
2023-04-26T22:32:54.562Z,100981.88
2023-04-26T22:35:22.095Z,100975.28
2023-04-26T22:37:48.616Z,100977.97
2023-04-26T22:40:16.129Z,100980.44
2023-04-26T22:42:43.251Z,100982.03
2023-04-26T22:45:11.127Z,100982.72
2023-04-26T22:47:38.126Z,100985.28
2023-04-26T22:50:06.027Z,100979.31
2023-04-26T22:52:32.717Z,100985.28
2023-04-26T22:55:00.007Z,100991.38
2023-04-26T22:57:26.957Z,100983.66
2023-04-26T22:59:53.399Z,100997.50
2023-04-26T23:02:20.932Z,100988.28
2023-04-26T23:04:47.680Z,100990.06
2023-04-26T23:07:14.198Z,100985.69
2023-04-26T23:09:41.179Z,100991.97
2023-04-26T23:12:07.827Z,100992.91
2023-04-26T23:14:35.087Z,101000.00
2023-04-26T23:17:02.884Z,100995.00
2023-04-26T23:19:29.546Z,101002.84
2023-04-26T23:21:56.391Z,101006.38
2023-04-26T23:24:22.919Z,101007.34
2023-04-26T23:26:49.588Z,101006.53
2023-04-26T23:29:16.159Z,101002.03
2023-04-26T23:31:43.017Z,101006.91
2023-04-26T23:34:09.606Z,101006.75
2023-04-26T23:36:36.261Z,101007.72
2023-04-26T23:39:03.016Z,101009.47
2023-04-26T23:41:29.564Z,101007.88
2023-04-26T23:43:56.131Z,100999.47
2023-04-26T23:46:22.860Z,101006.06
2023-04-26T23:48:49.409Z,101010.00
2023-04-26T23:51:16.275Z,101008.09
2023-04-26T23:53:43.912Z,101011.34
2023-04-26T23:56:10.600Z,101005.88
2023-04-26T23:58:37.169Z,101012.50
